Time;durP1;ratioP1;P1;durP2;ratioP2;P2;SDS_P1;SDS_P2;PMS_P1;PMS_P2;Temp;Humidity;BMP_temperature;BMP_pressure;BME280_temperature;BME280_humidity;BME280_pressure;Samples;Min_cycle;Max_cycle;Signal;HPM_P1;HPM_P2
2021/06/17 00:01:41;;;;;;;7.60;5.20;;;19.40;96.20;;;;;;6228090;28;20030;-82
2021/06/17 00:04:42;;;;;;;6.75;5.50;;;19.40;96.50;;;;;;6228155;28;20026;-81
2021/06/17 00:07:42;;;;;;;8.25;5.38;;;19.30;96.90;;;;;;6227470;28;20081;-82
2021/06/17 00:10:45;;;;;;;6.47;5.40;;;19.20;97.20;;;;;;6228339;28;20034;-83
2021/06/17 00:13:46;;;;;;;6.88;5.40;;;19.40;99.90;;;;;;6211304;28;20034;-80
2021/06/17 00:16:46;;;;;;;6.63;4.97;;;19.10;99.90;;;;;;6211635;28;20070;-82
2021/06/17 00:19:47;;;;;;;9.45;5.05;;;19.30;99.90;;;;;;6194842;28;20038;-81
2021/06/17 00:22:47;;;;;;;5.93;5.30;;;19.00;99.90;;;;;;6210901;28;20034;-81
2021/06/17 00:25:49;;;;;;;6.65;5.10;;;19.30;99.90;;;;;;6228081;28;20126;-82
2021/06/17 00:28:50;;;;;;;8.02;5.35;;;;;;;;;;6178702;28;20062;-81
2021/06/17 00:31:51;;;;;;;8.77;5.70;;;;;;;;;;6227164;28;20058;-80
2021/06/17 00:34:52;;;;;;;7.80;5.18;;;;;;;;;;6211153;28;20030;-83
2021/06/17 00:37:53;;;;;;;7.35;5.35;;;;;;;;;;6227131;28;20064;-81
2021/06/17 00:40:54;;;;;;;5.97;5.35;;;;;;;;;;6227555;28;20025;-80
2021/06/17 00:43:55;;;;;;;7.57;5.07;;;;;;;;;;6227285;28;20027;-83
2021/06/17 00:46:56;;;;;;;8.27;4.70;;;;;;;;;;6196208;28;20101;-82
2021/06/17 00:49:57;;;;;;;5.28;4.78;;;;;;;;;;6226949;28;20026;-81
2021/06/17 00:52:58;;;;;;;5.70;4.90;;;19.20;99.90;;;;;;6196246;28;20026;-80
2021/06/17 00:55:59;;;;;;;6.63;5.05;;;19.10;99.90;;;;;;6227143;28;20068;-82
2021/06/17 00:59:00;;;;;;;6.85;4.78;;;19.20;96.60;;;;;;6227183;28;20057;-81
2021/06/17 01:02:00;;;;;;;6.95;4.80;;;19.10;99.90;;;;;;6193773;28;20464;-80
2021/06/17 01:05:01;;;;;;;6.90;4.78;;;19.20;99.90;;;;;;6210808;28;20141;-81
2021/06/17 01:08:30;;;;;;;5.65;4.45;;;19.20;99.90;;;;;;6193619;28;20030;-81
2021/06/17 01:11:51;;;;;;;6.07;4.63;;;19.60;94.60;;;;;;6209698;28;20507;-81
2021/06/17 01:15:21;;;;;;;5.57;4.55;;;19.40;99.90;;;;;;6210476;28;20030;-81
2021/06/17 01:18:22;;;;;;;6.07;4.57;;;19.20;99.90;;;;;;6143682;29;20158;-82
2021/06/17 01:21:36;;;;;;;9.13;5.05;;;19.10;99.90;;;;;;6127907;29;20482;-81
2021/06/17 01:24:54;;;;;;;12.05;4.38;;;19.10;99.90;;;;;;6127671;29;20445;-81
2021/06/17 01:28:07;;;;;;;5.95;4.22;;;19.70;99.90;;;;;;6143246;28;20038;-81
2021/06/17 01:31:12;;;;;;;5.78;4.80;;;19.20;99.90;;;;;;6127218;29;20159;-81
2021/06/17 01:34:12;;;;;;;7.85;5.15;;;19.50;95.50;;;;;;6127034;29;20062;-81
2021/06/17 01:37:14;;;;;;;8.75;5.38;;;19.30;99.90;;;;;;6127348;29;20059;-81
2021/06/17 01:40:14;;;;;;;7.53;4.50;;;19.20;99.90;;;;;;6127553;29;20478;-81
2021/06/17 01:43:18;;;;;;;5.30;4.40;;;19.30;95.90;;;;;;6127529;29;20039;-83
2021/06/17 01:46:19;;;;;;;6.03;4.63;;;18.90;99.90;;;;;;6127590;29;20098;-80
2021/06/17 01:49:20;;;;;;;7.28;5.05;;;;;;;;;;6127306;29;20485;-81
2021/06/17 01:52:22;;;;;;;5.30;4.80;;;19.40;99.90;;;;;;6127532;29;20023;-82
2021/06/17 01:55:23;;;;;;;9.23;4.53;;;19.50;99.90;;;;;;6178134;28;20039;-82
2021/06/17 01:58:23;;;;;;;4.90;4.40;;;19.20;99.90;;;;;;6225425;28;20116;-81
2021/06/17 02:01:29;;;;;;;5.10;4.60;;;19.20;99.90;;;;;;6209514;28;20027;-81
2021/06/17 02:04:30;;;;;;;5.82;4.40;;;19.20;95.90;;;;;;6225618;28;20042;-82
2021/06/17 02:07:31;;;;;;;8.57;4.50;;;19.00;99.90;;;;;;6226003;28;20029;-82
2021/06/17 02:10:31;;;;;;;5.75;4.78;;;19.00;95.30;;;;;;6209228;28;20058;-81
2021/06/17 02:13:32;;;;;;;7.18;4.32;;;18.70;95.20;;;;;;6226203;28;20034;-81
2021/06/17 02:16:33;;;;;;;4.28;3.88;;;19.10;95.10;;;;;;6225534;28;20443;-80
2021/06/17 02:19:36;;;;;;;5.40;4.57;;;19.20;94.70;;;;;;6209013;28;20404;-80
2021/06/17 02:22:37;;;;;;;5.40;4.22;;;19.30;94.60;;;;;;6208684;28;20051;-80
2021/06/17 02:25:37;;;;;;;6.93;4.50;;;19.30;94.30;;;;;;6225606;28;20465;-82
2021/06/17 02:28:41;;;;;;;4.95;4.05;;;19.40;94.20;;;;;;6225586;28;20432;-80
2021/06/17 02:31:42;;;;;;;6.68;4.13;;;19.40;94.30;;;;;;6225184;28;20055;-83
2021/06/17 02:34:43;;;;;;;6.20;4.57;;;;;;;;;;6225535;28;20054;-81
2021/06/17 02:37:44;;;;;;;4.57;3.92;;;19.40;99.90;;;;;;6225180;28;20120;-81
2021/06/17 02:40:45;;;;;;;6.45;4.95;;;19.40;94.70;;;;;;6208747;28;20033;-82
2021/06/17 02:43:47;;;;;;;7.20;4.00;;;19.40;99.90;;;;;;6225397;28;20033;-81
2021/06/17 02:46:47;;;;;;;5.28;4.55;;;19.30;99.90;;;;;;6213484;28;20262;-82
2021/06/17 02:49:48;;;;;;;5.03;4.22;;;19.70;99.90;;;;;;6229895;28;20082;-81
2021/06/17 02:52:49;;;;;;;5.45;4.00;;;;;;;;;;6196672;28;20027;-81
2021/06/17 02:55:50;;;;;;;6.35;4.32;;;19.50;99.90;;;;;;6212941;28;20038;-80
2021/06/17 02:59:25;;;;;;;7.53;4.30;;;19.20;99.90;;;;;;6229767;28;20427;-82
2021/06/17 03:02:54;;;;;;;4.63;4.15;;;19.40;99.90;;;;;;6210961;28;20083;-79
2021/06/17 03:06:22;;;;;;;4.90;4.40;;;19.10;98.60;;;;;;6198458;28;20045;-80
2021/06/17 03:09:26;;;;;;;7.35;4.75;;;19.30;99.90;;;;;;6198287;28;20049;-81
2021/06/17 03:12:27;;;;;;;6.18;4.53;;;18.90;99.90;;;;;;6212907;28;20076;-82
2021/06/17 03:15:31;;;;;;;7.88;4.53;;;19.30;99.20;;;;;;6212635;28;20046;-81
2021/06/17 03:18:32;;;;;;;8.15;4.88;;;18.90;99.90;;;;;;6229564;28;20034;-80
2021/06/17 03:21:34;;;;;;;5.18;4.15;;;18.90;99.90;;;;;;6229303;28;20452;-81
2021/06/17 03:24:37;;;;;;;6.82;4.20;;;18.90;99.90;;;;;;6212982;28;20035;-81
2021/06/17 03:27:37;;;;;;;7.35;4.68;;;18.90;94.10;;;;;;6228656;28;20125;-80
2021/06/17 03:30:38;;;;;;;5.63;4.28;;;19.10;93.50;;;;;;6229492;28;20464;-81
2021/06/17 03:33:39;;;;;;;5.60;4.10;;;19.40;93.60;;;;;;6196485;28;20104;-82
2021/06/17 03:36:39;;;;;;;5.60;5.10;;;19.30;93.50;;;;;;6212801;28;20046;-82
2021/06/17 03:39:41;;;;;;;9.20;5.28;;;19.30;93.60;;;;;;6196481;28;20041;-80
2021/06/17 03:42:41;;;;;;;6.93;4.33;;;19.30;93.70;;;;;;6228785;28;20476;-81
2021/06/17 03:45:42;;;;;;;5.40;4.53;;;;;;;;;;6212494;28;20042;-82
2021/06/17 03:48:43;;;;;;;5.07;4.38;;;19.20;93.50;;;;;;6229122;28;20026;-82
2021/06/17 03:51:44;;;;;;;6.07;5.00;;;19.10;94.40;;;;;;6229035;28;20461;-81
2021/06/17 03:54:44;;;;;;;6.60;4.78;;;19.10;94.20;;;;;;6228487;28;20053;-81
2021/06/17 03:57:50;;;;;;;7.45;5.15;;;19.10;94.60;;;;;;6211573;28;20030;-82
2021/06/17 04:00:51;;;;;;;5.82;4.40;;;19.10;94.70;;;;;;6228239;28;20035;-83
2021/06/17 04:03:51;;;;;;;10.32;4.70;;;19.00;95.10;;;;;;6228529;28;20437;-83
2021/06/17 04:06:53;;;;;;;6.22;4.30;;;18.90;95.30;;;;;;6212160;28;20038;-80
2021/06/17 04:09:54;;;;;;;7.22;4.47;;;19.00;94.60;;;;;;6195747;28;20389;-81
2021/06/17 04:12:56;;;;;;;7.00;4.95;;;19.60;94.80;;;;;;6212399;28;20038;-81
2021/06/17 04:15:57;;;;;;;9.80;5.20;;;19.50;99.90;;;;;;6195055;28;20374;-82
2021/06/17 04:18:57;;;;;;;5.75;5.10;;;19.50;95.00;;;;;;6211841;28;20117;-81
2021/06/17 04:22:00;;;;;;;6.78;4.93;;;19.50;94.50;;;;;;6211230;28;20120;-82
2021/06/17 04:25:04;;;;;;;13.13;5.05;;;19.50;93.90;;;;;;6227799;28;20121;-82
2021/06/17 04:28:04;;;;;;;5.38;4.63;;;19.70;94.10;;;;;;6227222;28;20062;-81
2021/06/17 04:31:05;;;;;;;5.93;5.30;;;19.60;94.40;;;;;;6194214;28;20416;-81
2021/06/17 04:34:07;;;;;;;6.93;5.28;;;19.70;94.40;;;;;;6226712;28;20045;-82
2021/06/17 04:37:09;;;;;;;7.07;5.33;;;19.70;94.10;;;;;;6210000;28;20043;-81
2021/06/17 04:40:10;;;;;;;6.63;4.97;;;19.90;93.90;;;;;;6227114;28;20336;-78
2021/06/17 04:43:11;;;;;;;7.97;5.10;;;20.00;93.60;;;;;;6227633;28;20460;-80
2021/06/17 04:46:12;;;;;;;6.50;4.97;;;20.20;93.60;;;;;;6227243;28;20049;-77
2021/06/17 04:49:13;;;;;;;5.20;4.60;;;20.40;93.30;;;;;;6211056;28;20121;-78
2021/06/17 04:52:19;;;;;;;7.78;4.70;;;20.60;92.80;;;;;;6210479;28;20084;-78
2021/06/17 04:55:20;;;;;;;5.10;4.57;;;20.80;92.10;;;;;;6226331;28;20046;-78
2021/06/17 04:58:21;;;;;;;6.90;5.18;;;21.00;91.70;;;;;;6210771;28;20030;-80
2021/06/17 05:01:22;;;;;;;6.75;4.45;;;20.90;92.00;;;;;;6227231;28;20026;-77
2021/06/17 05:04:23;;;;;;;7.88;4.45;;;21.30;92.50;;;;;;6226920;28;20484;-80
2021/06/17 05:10:48;;;;;;;5.15;4.43;;;22.20;99.90;;;;;;6224364;28;20062;-81
2021/06/17 05:13:49;;;;;;;9.40;4.53;;;22.80;99.90;;;;;;6208670;28;20117;-81
2021/06/17 05:16:50;;;;;;;5.05;4.55;;;22.80;99.90;;;;;;6227171;28;20046;-82
2021/06/17 05:19:51;;;;;;;7.10;4.53;;;;;;;;;;6211187;28;20388;-87
2021/06/17 05:22:52;;;;;;;5.05;4.25;;;;;;;;;;6227445;28;20038;-84
2021/06/17 05:25:54;;;;;;;5.13;4.53;;;23.30;93.50;;;;;;6227068;28;20121;-81
2021/06/17 05:28:55;;;;;;;9.23;4.90;;;;;;;;;;6194398;28;20046;-87
2021/06/17 05:31:56;;;;;;;7.47;4.35;;;23.70;98.20;;;;;;6209901;28;20062;-80
2021/06/17 05:34:57;;;;;;;6.47;4.37;;;23.90;97.80;;;;;;6226016;28;20038;-79
2021/06/17 05:37:57;;;;;;;6.80;4.50;;;24.10;91.00;;;;;;6193226;28;20105;-80
2021/06/17 05:40:58;;;;;;;6.65;5.13;;;24.30;90.90;;;;;;6210066;28;20034;-84
2021/06/17 05:43:59;;;;;;;7.57;4.55;;;24.40;82.80;;;;;;6209508;28;20121;-81
2021/06/17 05:46:59;;;;;;;6.25;4.78;;;24.40;82.10;;;;;;6193317;28;20057;-86
2021/06/17 05:50:00;;;;;;;8.70;5.10;;;24.60;83.20;;;;;;6209268;28;20037;-84
2021/06/17 05:53:01;;;;;;;7.43;4.40;;;24.90;82.60;;;;;;6193083;28;20022;-85
2021/06/17 05:56:01;;;;;;;5.77;4.73;;;25.30;82.20;;;;;;6209582;28;20049;-83
2021/06/17 05:59:02;;;;;;;4.40;4.00;;;25.80;80.40;;;;;;6209785;28;20542;-84
2021/06/17 06:02:03;;;;;;;5.03;4.23;;;26.20;76.40;;;;;;6209851;28;20499;-85
2021/06/17 06:05:05;;;;;;;4.55;4.13;;;26.60;75.80;;;;;;6226459;28;20043;-82
2021/06/17 06:08:11;;;;;;;4.78;3.90;;;26.40;79.10;;;;;;6209709;28;20913;-82
2021/06/17 06:11:11;;;;;;;5.22;4.30;;;26.50;76.50;;;;;;6209140;28;20092;-81
2021/06/17 06:14:12;;;;;;;5.47;4.67;;;26.80;76.10;;;;;;6225695;28;20038;-82
2021/06/17 06:17:13;;;;;;;6.03;4.37;;;27.50;72.80;;;;;;6225745;28;20038;-85
2021/06/17 06:20:13;;;;;;;5.20;4.00;;;28.10;70.00;;;;;;6192230;28;20109;-84
2021/06/17 06:23:15;;;;;;;4.53;4.13;;;28.60;66.90;;;;;;6212993;28;20054;-83
2021/06/17 06:26:16;;;;;;;;;;;29.00;65.50;;;;;;6230214;28;20026;-83
2021/06/17 06:29:16;;;;;;;6.22;4.70;;;29.30;64.80;;;;;;6214331;28;20286;-83
2021/06/17 06:32:17;;;;;;;6.43;4.40;;;29.80;62.90;;;;;;6197729;28;20136;-84
2021/06/17 06:35:17;;;;;;;8.47;4.77;;;29.70;63.20;;;;;;6230660;28;20137;-82
2021/06/17 06:38:18;;;;;;;6.27;4.03;;;29.60;63.50;;;;;;6230612;28;20398;-83
2021/06/17 06:41:19;;;;;;;4.43;4.03;;;29.60;65.20;;;;;;6213766;28;20031;-86
2021/06/17 06:44:20;;;;;;;4.33;3.93;;;29.60;63.20;;;;;;6197853;28;20034;-85
2021/06/17 06:47:21;;;;;;;4.93;4.43;;;29.80;62.60;;;;;;6197698;28;20033;-86
2021/06/17 06:50:21;;;;;;;7.97;4.63;;;30.20;63.70;;;;;;6213480;28;20038;-85
2021/06/17 06:53:22;;;;;;;5.00;4.50;;;30.60;60.30;;;;;;6230182;28;20054;-83
2021/06/17 06:56:22;;;;;;;4.90;4.30;;;30.70;59.80;;;;;;6196783;28;20046;-85
2021/06/17 06:59:23;;;;;;;5.00;4.50;;;31.00;59.20;;;;;;6214683;28;20026;-86
2021/06/17 07:02:24;;;;;;;5.30;3.97;;;31.30;59.50;;;;;;6229840;28;20027;-81
2021/06/17 07:05:26;;;;;;;6.43;4.67;;;31.50;57.00;;;;;;6214314;28;20432;-85
2021/06/17 07:08:27;;;;;;;5.45;4.00;;;32.40;56.20;;;;;;6212687;28;20121;-83
2021/06/17 07:11:27;;;;;;;6.43;4.40;;;33.20;55.20;;;;;;6230656;28;20053;-86
2021/06/17 07:14:31;;;;;;;5.03;4.40;;;33.50;53.10;;;;;;6196602;28;20366;-84
2021/06/17 07:17:31;;;;;;;4.75;4.25;;;33.80;55.20;;;;;;6212976;28;20042;-86
2021/06/17 07:20:32;;;;;;;5.47;3.92;;;34.00;54.70;;;;;;6212948;28;20027;-86
2021/06/17 07:23:34;;;;;;;6.57;4.20;;;34.40;53.60;;;;;;6213338;28;20030;-83
2021/06/17 07:26:34;;;;;;;4.90;4.38;;;34.80;52.90;;;;;;6212554;28;20023;-83
2021/06/17 07:29:35;;;;;;;8.00;4.30;;;34.90;51.80;;;;;;6212530;28;20057;-83
2021/06/17 07:32:36;;;;;;;8.88;4.70;;;34.70;51.70;;;;;;6227660;28;20057;-88
2021/06/17 07:35:36;;;;;;;12.55;5.00;;;34.60;50.70;;;;;;6212587;28;20038;-88
2021/06/17 07:38:37;;;;;;;7.28;5.53;;;35.00;53.00;;;;;;6229425;28;20038;-87
2021/06/17 07:41:38;;;;;;;6.00;5.45;;;34.00;53.30;;;;;;6228735;28;20073;-88
2021/06/17 07:44:39;;;;;;;6.82;5.20;;;;;;;;;;6212539;28;20046;-88
2021/06/17 07:47:40;;;;;;;5.70;5.20;;;;;;;;;;6212889;28;20048;-90
2021/06/17 07:56:04;;;;;;;;;;;;;;;;;;;;;
2021/06/17 07:59:26;;;;;;;9.27;8.15;;;37.10;57.00;;;;;;6085823;29;20181;-89
2021/06/17 08:02:26;;;;;;;;;;;34.80;59.10;;;;;;6077127;29;20086;-87
2021/06/17 08:05:27;;;;;;;10.50;9.60;;;34.50;76.60;;;;;;6076143;29;20259;-88
2021/06/17 08:08:28;;;;;;;9.65;8.75;;;34.70;60.40;;;;;;6072293;29;20329;-87
2021/06/17 08:11:28;;;;;;;10.45;9.45;;;34.50;60.00;;;;;;6068712;29;20071;-88
2021/06/17 08:14:29;;;;;;;11.20;9.45;;;36.00;62.80;;;;;;6070584;29;20040;-89
2021/06/17 08:17:30;;;;;;;11.77;10.13;;;34.00;59.40;;;;;;6068109;29;20084;-88
2021/06/17 08:20:30;;;;;;;11.00;9.75;;;33.50;58.70;;;;;;6077720;29;20494;-88
2021/06/17 08:23:32;;;;;;;10.88;9.05;;;33.20;59.30;;;;;;6067887;29;20493;-88
2021/06/17 08:26:33;;;;;;;10.63;9.65;;;33.50;59.20;;;;;;6069173;29;20512;-87
2021/06/17 08:29:36;;;;;;;9.98;9.02;;;32.60;59.70;;;;;;6081802;29;20111;-88
2021/06/17 08:32:38;;;;;;;10.63;9.55;;;;;;;;;;6089461;29;20092;-89
2021/06/17 08:35:41;;;;;;;9.90;8.90;;;33.50;59.90;;;;;;6195949;28;20046;-89
2021/06/17 08:38:42;;;;;;;10.68;9.65;;;33.80;60.80;;;;;;6212361;28;20044;-88
2021/06/17 08:41:46;;;;;;;10.07;9.07;;;34.30;59.60;;;;;;6211773;28;20026;-88
2021/06/17 08:44:47;;;;;;;9.75;8.75;;;34.60;59.60;;;;;;6211418;28;20030;-88
2021/06/17 08:47:47;;;;;;;10.38;9.48;;;35.00;57.70;;;;;;6228387;28;20615;-88
2021/06/17 08:50:48;;;;;;;9.90;8.90;;;35.70;58.30;;;;;;6195032;28;20039;-88
2021/06/17 08:53:49;;;;;;;;;;;35.80;56.30;;;;;;6211746;28;20706;-87
2021/06/17 08:56:50;;;;;;;10.30;9.27;;;36.20;56.30;;;;;;6194294;28;19941;-88
2021/06/17 08:59:50;;;;;;;;;;;36.30;55.60;;;;;;6211311;28;20270;-88
2021/06/17 09:03:02;;;;;;;12.20;8.75;;;36.00;54.20;;;;;;6227322;28;19906;-88
2021/06/17 09:06:03;;;;;;;10.40;9.40;;;35.60;53.10;;;;;;6226586;28;20427;-88
2021/06/17 09:09:03;;;;;;;;;;;34.40;54.80;;;;;;6195053;28;20043;-88
2021/06/17 09:12:05;;;;;;;9.73;8.77;;;33.50;55.60;;;;;;6194713;28;19945;-87
2021/06/17 09:15:06;;;;;;;11.82;9.40;;;33.10;58.30;;;;;;6210941;28;20527;-88
2021/06/17 09:18:07;;;;;;;;;;;32.80;60.20;;;;;;6211079;28;20504;-88
2021/06/17 09:21:12;;;;;;;10.18;9.35;;;33.10;60.20;;;;;;6194171;28;20001;-88
2021/06/17 09:24:13;;;;;;;9.65;8.75;;;33.20;61.80;;;;;;6210027;28;20038;-88
2021/06/17 09:27:28;;;;;;;9.82;9.00;;;33.40;60.60;;;;;;6227033;28;20073;-88
2021/06/17 09:30:29;;;;;;;10.05;9.10;;;33.70;59.40;;;;;;6209484;28;20046;-87
2021/06/17 09:33:40;;;;;;;10.20;9.27;;;34.10;59.10;;;;;;6226496;28;20050;-88
2021/06/17 09:36:41;;;;;;;10.98;9.93;;;34.40;59.50;;;;;;6210435;28;20046;-88
2021/06/17 09:39:41;;;;;;;10.48;9.35;;;35.10;59.40;;;;;;6227064;28;20056;-88
2021/06/17 09:42:42;;;;;;;10.25;9.25;;;;;;;;;;6209651;28;20092;-88
2021/06/17 09:45:53;;;;;;;;;;;34.70;56.50;;;;;;6227114;28;20069;-88
2021/06/17 09:48:54;;;;;;;10.90;9.50;;;35.00;57.00;;;;;;6226446;28;19914;-88
2021/06/17 09:51:54;;;;;;;9.68;8.88;;;34.80;58.50;;;;;;6226560;28;20050;-88
2021/06/17 09:54:55;;;;;;;10.98;9.80;;;35.30;60.50;;;;;;6192757;28;20026;-87
2021/06/17 09:57:56;;;;;;;;;;;34.80;59.90;;;;;;6210487;28;20717;-87
2021/06/17 10:00:57;;;;;;;10.67;9.57;;;;;;;;;;6193787;28;20386;-88
2021/06/17 10:04:06;;;;;;;12.15;9.32;;;35.60;58.70;;;;;;6226154;28;20101;-87
2021/06/17 10:07:08;;;;;;;9.50;8.70;;;;;;;;;;6193493;28;20843;-88
2021/06/17 10:10:09;;;;;;;;;;;35.60;58.80;;;;;;6210014;28;20032;-88
2021/06/17 10:13:09;;;;;;;11.25;10.32;;;35.70;62.60;;;;;;6193392;28;20382;-89
2021/06/17 10:16:17;;;;;;;;;;;35.70;61.90;;;;;;6226041;28;20042;-89
2021/06/17 10:19:19;;;;;;;10.70;9.63;;;;;;;;;;6208841;28;20013;-90
2021/06/17 10:22:24;;;;;;;11.13;10.02;;;36.00;57.90;;;;;;6225723;28;20042;-89
2021/06/17 10:25:28;;;;;;;10.30;9.27;;;36.50;58.30;;;;;;6210673;28;20080;-90
2021/06/17 10:28:49;;;;;;;15.38;9.45;;;37.00;59.80;;;;;;6193934;28;20336;-91
2021/06/17 10:31:51;;;;;;;10.13;9.25;;;37.40;54.20;;;;;;6208976;28;20415;-89
2021/06/17 10:35:03;;;;;;;10.20;9.07;;;37.40;54.70;;;;;;6226345;28;20089;-89
2021/06/17 10:38:24;;;;;;;10.15;9.15;;;37.20;53.70;;;;;;6167105;28;20089;-88
2021/06/17 10:41:44;;;;;;;;;;;37.40;53.20;;;;;;6135093;29;20494;-85
2021/06/17 10:44:57;;;;;;;13.20;8.98;;;36.90;51.20;;;;;;6142512;29;19933;-84
2021/06/17 10:47:59;;;;;;;10.00;9.02;;;36.90;53.30;;;;;;6127145;29;20038;-85
2021/06/17 10:55:18;;;;;;;9.00;8.20;;;37.90;53.00;;;;;;6144614;29;20051;-84
2021/06/17 10:58:38;;;;;;;9.82;8.90;;;37.40;51.30;;;;;;6127887;29;20039;-82
2021/06/17 11:01:41;;;;;;;9.63;8.70;;;37.10;48.90;;;;;;6147361;28;20082;-88
2021/06/17 11:04:44;;;;;;;11.02;9.15;;;36.80;52.10;;;;;;6110201;28;20561;-88
2021/06/17 11:08:14;;;;;;;9.55;8.52;;;36.70;50.00;;;;;;6154058;28;20049;-87
2021/06/17 11:11:31;;;;;;;9.20;8.40;;;36.70;51.00;;;;;;6170554;28;20129;-88
2021/06/17 11:14:48;;;;;;;9.75;8.85;;;38.00;50.40;;;;;;6153520;28;20053;-89
2021/06/17 11:17:51;;;;;;;9.40;8.50;;;36.10;50.20;;;;;;6133538;28;20039;-88
2021/06/17 11:20:52;;;;;;;10.35;9.20;;;35.20;50.10;;;;;;6195657;28;20057;-88
2021/06/17 11:24:10;;;;;;;10.10;9.20;;;35.20;51.70;;;;;;6229146;28;20346;-88
2021/06/17 11:27:30;;;;;;;10.30;9.20;;;35.30;53.90;;;;;;6228473;28;20378;-87
2021/06/17 11:30:42;;;;;;;11.82;9.55;;;34.80;53.00;;;;;;6212634;28;20520;-86
2021/06/17 11:33:46;;;;;;;10.73;9.73;;;34.80;54.20;;;;;;6197900;28;20089;-86
2021/06/17 11:36:54;;;;;;;10.10;9.20;;;34.50;54.00;;;;;;6212570;28;20500;-87
2021/06/17 11:39:54;;;;;;;9.45;8.60;;;34.50;53.70;;;;;;6212232;28;20488;-87
2021/06/17 11:42:55;;;;;;;;;;;34.60;55.30;;;;;;6212814;28;20030;-86
2021/06/17 11:45:56;;;;;;;9.83;8.93;;;35.00;55.50;;;;;;6194997;28;19929;-87
2021/06/17 11:48:59;;;;;;;9.20;8.48;;;35.30;55.10;;;;;;6194590;28;20027;-87
2021/06/17 11:52:00;;;;;;;9.55;8.65;;;;;;;;;;6194725;28;20026;-86
2021/06/17 11:55:03;;;;;;;9.18;8.38;;;35.60;57.80;;;;;;6227467;28;20034;-86
2021/06/17 11:58:07;;;;;;;10.18;9.23;;;35.50;58.80;;;;;;6227244;28;20105;-86
2021/06/17 12:01:08;;;;;;;10.75;9.75;;;;;;;;;;6227436;28;20023;-86
2021/06/17 12:04:12;;;;;;;11.30;9.00;;;;;;;;;;6212160;28;20162;-87
2021/06/17 12:07:13;;;;;;;9.77;8.85;;;35.60;58.90;;;;;;6229016;28;20066;-88
2021/06/17 12:10:18;;;;;;;;;;;35.40;58.10;;;;;;6212378;28;20529;-86
2021/06/17 12:13:19;;;;;;;9.85;8.85;;;35.30;57.50;;;;;;6212319;28;19910;-88
2021/06/17 12:16:20;;;;;;;;;;;35.20;57.50;;;;;;6212958;28;20038;-88
2021/06/17 12:19:20;;;;;;;13.53;10.00;;;34.80;61.00;;;;;;6194825;28;19912;-85
2021/06/17 12:22:21;;;;;;;;;;;35.60;60.30;;;;;;6212510;28;20026;-84
2021/06/17 12:25:22;;;;;;;10.13;9.23;;;34.80;60.60;;;;;;6195105;28;20323;-88
2021/06/17 12:28:23;;;;;;;9.55;8.75;;;34.50;59.20;;;;;;6228463;28;20085;-88
2021/06/17 12:31:36;;;;;;;;;;;34.80;59.80;;;;;;6211135;28;20148;-89
2021/06/17 12:34:43;;;;;;;9.75;8.75;;;34.90;59.80;;;;;;6228097;28;19914;-87
2021/06/17 12:38:10;;;;;;;9.45;8.55;;;34.70;59.20;;;;;;6194851;28;20034;-88
2021/06/17 12:41:29;;;;;;;10.57;9.35;;;34.60;61.30;;;;;;6192579;28;20088;-86
2021/06/17 12:44:39;;;;;;;10.57;9.57;;;34.70;57.90;;;;;;6228082;28;20435;-88
2021/06/17 12:47:42;;;;;;;10.65;9.63;;;34.90;60.00;;;;;;6210748;28;20050;-86
2021/06/17 12:54:03;;;;;;;7.40;6.70;;;34.60;57.90;;;;;;6208869;28;20054;-86
2021/06/17 12:57:05;;;;;;;12.07;7.07;;;34.60;54.50;;;;;;6211505;28;20029;-89
2021/06/17 13:00:12;;;;;;;11.32;6.70;;;32.30;50.60;;;;;;6208572;28;20023;-88
2021/06/17 13:03:25;;;;;;;6.65;6.05;;;34.60;53.40;;;;;;6194228;28;20031;-87
2021/06/17 13:06:37;;;;;;;8.60;6.05;;;34.60;51.10;;;;;;6226652;28;20081;-87
2021/06/17 13:09:37;;;;;;;7.72;5.80;;;34.60;49.20;;;;;;6194659;28;20040;-89
2021/06/17 13:12:38;;;;;;;;;;;35.70;54.50;;;;;;6194903;28;20034;-87
2021/06/17 13:15:38;;;;;;;6.30;5.60;;;34.80;52.90;;;;;;6194357;28;19913;-88
2021/06/17 13:18:39;;;;;;;;;;;34.70;52.60;;;;;;6194963;28;20042;-88
2021/06/17 13:21:40;;;;;;;8.67;5.47;;;34.60;50.30;;;;;;6194131;28;19987;-88
2021/06/17 13:24:41;;;;;;;7.90;5.72;;;34.50;71.10;;;;;;6227240;28;20022;-88
2021/06/17 13:27:42;;;;;;;8.82;5.57;;;;;;;;;;6226735;28;20420;-86
2021/06/17 13:30:42;;;;;;;;;;;34.60;53.00;;;;;;6226660;28;20469;-88
2021/06/17 13:33:43;;;;;;;8.83;6.13;;;34.50;70.60;;;;;;6193726;28;19999;-87
2021/06/17 13:36:44;;;;;;;;;;;34.80;57.70;;;;;;6227518;28;20206;-88
2021/06/17 13:39:45;;;;;;;7.23;5.23;;;;;;;;;;6193574;28;19992;-88
2021/06/17 13:42:55;;;;;;;6.70;5.50;;;34.70;54.20;;;;;;6209719;28;20561;-88
2021/06/17 13:45:56;;;;;;;9.55;5.43;;;;;;;;;;6193157;28;20092;-88
2021/06/17 13:48:57;;;;;;;;;;;34.80;48.40;;;;;;6226722;28;20085;-87
2021/06/17 13:51:59;;;;;;;6.90;4.90;;;35.00;55.60;;;;;;6193829;28;19913;-88
2021/06/17 13:55:00;;;;;;;6.50;5.05;;;;;;;;;;6209472;28;20038;-87
2021/06/17 13:58:01;;;;;;;8.15;5.30;;;;;;;;;;6226344;28;20030;-86
2021/06/17 14:01:03;;;;;;;;;;;35.10;47.70;;;;;;6227016;28;20030;-86
2021/06/17 14:04:04;;;;;;;10.20;5.25;;;35.10;46.50;;;;;;6193501;28;19906;-86
2021/06/17 14:07:04;;;;;;;;;;;35.20;47.30;;;;;;6209765;28;20134;-88
2021/06/17 14:10:06;;;;;;;11.57;4.63;;;35.10;48.10;;;;;;6193630;28;19909;-89
2021/06/17 14:13:07;;;;;;;10.38;5.30;;;35.20;46.10;;;;;;6193407;28;20164;-87
2021/06/17 14:16:08;;;;;;;;;;;35.60;45.80;;;;;;6227035;28;20465;-89
2021/06/17 14:19:09;;;;;;;7.28;4.78;;;;;;;;;;6193465;28;19980;-87
2021/06/17 14:22:09;;;;;;;;;;;35.20;42.10;;;;;;6225960;28;20038;-87
2021/06/17 14:25:10;;;;;;;7.30;5.40;;;35.50;44.60;;;;;;6193387;28;19921;-87
2021/06/17 14:28:11;;;;;;;;;;;35.80;43.70;;;;;;6226302;28;20764;-86
2021/06/17 14:31:12;;;;;;;8.95;5.32;;;35.50;43.50;;;;;;6225697;28;19937;-88
2021/06/17 14:34:12;;;;;;;;;;;35.30;42.40;;;;;;6226354;28;20042;-87
2021/06/17 14:37:13;;;;;;;6.87;4.63;;;35.30;44.30;;;;;;6193437;28;19913;-88
2021/06/17 14:40:15;;;;;;;8.52;5.72;;;35.40;44.10;;;;;;6226542;28;20265;-86
2021/06/17 14:43:16;;;;;;;6.60;5.03;;;35.30;43.30;;;;;;6231027;28;20030;-89
2021/06/17 14:46:16;;;;;;;;;;;35.20;46.20;;;;;;6198508;28;20042;-87
2021/06/17 14:49:17;;;;;;;6.13;5.20;;;35.20;47.30;;;;;;6197548;28;20505;-87
2021/06/17 14:52:18;;;;;;;;;;;35.70;49.60;;;;;;6214502;28;20031;-88
2021/06/17 14:55:19;;;;;;;8.90;5.27;;;35.30;48.00;;;;;;6197871;28;19910;-89
2021/06/17 14:58:20;;;;;;;8.57;5.65;;;35.00;44.60;;;;;;6197516;28;20061;-88
2021/06/17 15:01:36;;;;;;;;;;;35.00;50.50;;;;;;6214618;28;20034;-90
2021/06/17 15:05:34;;;;;;;8.80;5.40;;;36.30;42.30;;;;;;6214850;28;20552;-91
2021/06/17 15:12:27;;;;;;;10.95;5.32;;;35.30;52.10;;;;;;6128686;29;20035;-89
2021/06/17 15:15:28;;;;;;;;;;;34.70;42.20;;;;;;6180359;28;20734;-86
2021/06/17 15:18:31;;;;;;;9.03;5.80;;;34.60;41.80;;;;;;6179156;28;19910;-88
2021/06/17 15:21:51;;;;;;;8.32;5.47;;;34.50;43.30;;;;;;6155873;28;20044;-88
2021/06/17 15:41:33;;;;;;;7.65;5.13;;;35.50;42.30;;;;;;6114864;29;20672;-89
2021/06/17 15:45:13;;;;;;;12.30;5.22;;;33.60;48.20;;;;;;6113970;29;20043;-90
2021/06/17 15:56:40;;;;;;;8.68;5.60;;;35.70;47.60;;;;;;6129999;29;20035;-90
2021/06/17 16:03:33;;;;;;;8.53;5.33;;;34.50;47.60;;;;;;6135951;28;20060;-88
2021/06/17 16:06:34;;;;;;;9.20;5.15;;;34.50;47.20;;;;;;6209759;28;20074;-87
2021/06/17 16:09:34;;;;;;;;;;;34.10;47.70;;;;;;6195004;28;20038;-84
2021/06/17 16:12:35;;;;;;;9.93;5.60;;;34.10;48.90;;;;;;6192967;28;19964;-85
2021/06/17 16:15:36;;;;;;;;;;;34.10;48.70;;;;;;6226245;28;20081;-83
2021/06/17 16:18:36;;;;;;;7.47;5.60;;;34.00;48.60;;;;;;6225604;28;19921;-82
2021/06/17 16:21:37;;;;;;;;;;;33.80;49.20;;;;;;6193372;28;20773;-84
2021/06/17 16:24:38;;;;;;;12.37;6.10;;;33.80;47.40;;;;;;6226017;28;19913;-85
2021/06/17 16:27:40;;;;;;;10.73;5.72;;;33.70;49.90;;;;;;6227642;28;20493;-79
2021/06/17 16:30:40;;;;;;;11.68;5.78;;;33.60;49.90;;;;;;6227895;28;20057;-83
2021/06/17 16:33:41;;;;;;;7.70;5.82;;;33.60;51.50;;;;;;6227133;28;20054;-79
2021/06/17 16:36:42;;;;;;;;;;;33.50;50.80;;;;;;6211937;28;20691;-80
2021/06/17 16:40:22;;;;;;;8.85;5.43;;;33.40;44.70;;;;;;6194783;28;19998;-80
2021/06/17 16:43:24;;;;;;;10.10;5.95;;;33.30;45.30;;;;;;6211713;28;20049;-79
2021/06/17 16:46:25;;;;;;;10.40;6.18;;;33.30;49.90;;;;;;6217086;28;20030;-79
2021/06/17 16:49:25;;;;;;;11.82;5.95;;;33.20;49.30;;;;;;6199575;28;20128;-81
2021/06/17 16:52:26;;;;;;;;;;;32.50;48.10;;;;;;6200403;28;20041;-83
2021/06/17 16:55:27;;;;;;;6.90;5.53;;;33.20;48.70;;;;;;6216820;28;20363;-83
2021/06/17 16:58:30;;;;;;;10.65;6.20;;;33.10;47.20;;;;;;6184361;28;20053;-82
2021/06/17 17:01:31;;;;;;;8.05;6.03;;;;;;;;;;6200808;28;20059;-82
2021/06/17 17:04:32;;;;;;;8.05;6.03;;;33.00;48.10;;;;;;6183877;28;20018;-81
2021/06/17 17:07:33;;;;;;;9.75;6.18;;;33.00;51.60;;;;;;6200333;28;20093;-79